TimeMDT,TemperatureF,Dew PointF,Humidity,Sea Level PressureIn,VisibilityMPH,Wind Direction,Wind SpeedMPH,Gust SpeedMPH,PrecipitationIn,Events,Conditions,WindDirDegrees,DateUTC
12:53 AM,46.0,39.9,79,30.16,10.0,WSW,8.1,-,N/A,,Clear,240,2013-05-12 06:53:00
1:53 AM,48.9,42.1,77,30.12,10.0,WSW,10.4,-,N/A,,Clear,240,2013-05-12 07:53:00
2:53 AM,46.9,41.0,80,30.11,10.0,West,5.8,-,N/A,,Clear,280,2013-05-12 08:53:00
3:53 AM,39.0,37.0,93,30.10,10.0,West,6.9,-,N/A,,Clear,270,2013-05-12 09:53:00
4:53 AM,37.9,35.1,89,30.11,10.0,West,6.9,-,N/A,,Clear,270,2013-05-12 10:53:00
5:53 AM,48.0,39.0,71,30.07,10.0,WNW,11.5,-,N/A,,Clear,290,2013-05-12 11:53:00
6:53 AM,50.0,39.9,68,30.07,10.0,WNW,11.5,-,N/A,,Clear,290,2013-05-12 12:53:00
7:53 AM,60.1,39.9,47,30.08,10.0,NW,12.7,-,N/A,,Clear,310,2013-05-12 13:53:00
8:53 AM,68.0,39.0,35,30.07,10.0,NW,12.7,-,N/A,,Clear,320,2013-05-12 14:53:00
9:53 AM,73.0,35.1,25,30.06,10.0,North,13.8,-,N/A,,Clear,350,2013-05-12 15:53:00
10:53 AM,75.0,34.0,22,30.06,10.0,North,15.0,19.6,N/A,,Clear,360,2013-05-12 16:53:00
11:53 AM,75.0,34.0,22,30.06,10.0,North,9.2,19.6,N/A,,Clear,350,2013-05-12 17:53:00
12:53 PM,78.1,35.1,21,30.05,10.0,North,17.3,21.9,N/A,,Clear,350,2013-05-12 18:53:00
1:53 PM,79.0,34.0,20,30.02,10.0,North,19.6,25.3,N/A,,Partly Cloudy,10,2013-05-12 19:53:00
2:53 PM,79.0,34.0,20,30.00,10.0,NE,9.2,17.3,N/A,,Partly Cloudy,40,2013-05-12 20:53:00
3:53 PM,78.1,34.0,20,30.01,10.0,NE,3.5,-,N/A,,Scattered Clouds,50,2013-05-12 21:53:00
4:53 PM,80.1,32.0,17,30.00,10.0,West,4.6,-,N/A,,Partly Cloudy,280,2013-05-12 22:53:00
5:53 PM,77.0,35.1,22,29.97,10.0,East,6.9,-,N/A,,Scattered Clouds,100,2013-05-12 23:53:00
6:53 PM,73.9,39.0,28,29.97,10.0,ESE,6.9,-,N/A,,Clear,120,2013-05-13 00:53:00
7:53 PM,63.0,39.0,41,29.97,10.0,SSE,8.1,-,N/A,,Clear,150,2013-05-13 01:53:00
8:53 PM,55.9,37.0,49,29.97,10.0,SSE,9.2,-,N/A,,Clear,150,2013-05-13 02:53:00
9:53 PM,55.9,37.0,49,29.97,10.0,SSE,5.8,-,N/A,,Clear,160,2013-05-13 03:53:00
10:53 PM,55.0,39.0,55,29.98,10.0,South,10.4,-,N/A,,Clear,180,2013-05-13 04:53:00
11:53 PM,57.0,37.9,49,29.98,10.0,South,8.1,-,N/A,,Clear,180,2013-05-13 05:53:00